Aviation Digital Data Service (ADDS)

Output produced by METARs form (1235 UTC 17 August 2019)
found at http://aviationweather.gov/metar/data/
 
METAR text: KSBS 171215Z AUTO 00000KT 10SM SCT120 07/05 A3008 RMK AO1 T00660053
Conditions at: KSBS (STEAMBOAT SPRING, CO, US) observed 1215 UTC 17 August 2019
Temperature: 6.6°C (44°F)
Dewpoint: 5.3°C (42°F) [RH = 91%]
Pressure (altimeter): 30.08 inches Hg (1018.7 mb)
Winds: calm
Visibility: 10 or more miles (16+ km)
Ceiling: at least 12,000 feet AGL
Clouds: scattered clouds at 12000 feet AGL
Weather: automated observation with no human augmentation;
there may or may not be significant weather present at this time

METAR text: KSBS 171155Z AUTO 00000KT 10SM SCT120 08/05 A3008 RMK AO1 T00760048 10130 20071
Conditions at: KSBS (STEAMBOAT SPRING, CO, US) observed 1155 UTC 17 August 2019
Temperature: 7.6°C (46°F)
Dewpoint: 4.8°C (41°F) [RH = 82%]
Pressure (altimeter): 30.08 inches Hg (1018.7 mb)
Winds: calm
Visibility: 10 or more miles (16+ km)
Ceiling: at least 12,000 feet AGL
Clouds: scattered clouds at 12000 feet AGL
Weather: automated observation with no human augmentation;
there may or may not be significant weather present at this time